Time;durP1;ratioP1;P1;durP2;ratioP2;P2;SDS_P1;SDS_P2;PMS_P1;PMS_P2;Temp;Humidity;BMP_temperature;BMP_pressure;BME280_temperature;BME280_humidity;BME280_pressure;Samples;Min_cycle;Max_cycle;Signal;HPM_P1;HPM_P2
2022/12/23 00:01:06;;;;;;;1.23;0.50;;;14.40;99.90;;;;;;5056572;28;20081;-70
2022/12/23 00:03:32;;;;;;;0.93;0.52;;;14.30;99.90;;;;;;5038903;28;20041;-70
2022/12/23 00:05:58;;;;;;;1.63;0.70;;;14.30;99.90;;;;;;5056785;28;20021;-70
2022/12/23 00:08:25;;;;;;;2.15;0.50;;;14.30;99.90;;;;;;5039041;28;20040;-70
2022/12/23 00:10:52;;;;;;;1.65;0.45;;;14.30;99.90;;;;;;5056829;28;20413;-70
2022/12/23 00:16:07;;;;;;;1.00;0.55;;;14.30;99.90;;;;;;5057120;28;20024;-70
2022/12/23 00:18:33;;;;;;;1.42;0.50;;;14.30;99.90;;;;;;5056710;28;20025;-70
2022/12/23 00:21:05;;;;;;;1.80;0.47;;;14.30;99.90;;;;;;5056762;28;20051;-70
2022/12/23 00:23:36;;;;;;;1.23;0.40;;;14.30;99.90;;;;;;5056725;28;20025;-70
2022/12/23 00:26:02;;;;;;;0.68;0.45;;;14.20;99.90;;;;;;5038865;28;20029;-70
2022/12/23 00:28:29;;;;;;;0.52;0.30;;;14.30;99.90;;;;;;5056671;28;20025;-70
2022/12/23 00:30:58;;;;;;;1.00;0.40;;;14.20;99.90;;;;;;5056936;28;20052;-70
2022/12/23 00:33:26;;;;;;;0.32;0.20;;;14.20;99.90;;;;;;5056428;28;20115;-70
2022/12/23 00:35:52;;;;;;;1.40;0.40;;;14.20;99.90;;;;;;5056361;28;20022;-70
2022/12/23 00:44:00;;;;;;;0.50;0.30;;;14.30;99.90;;;;;;5056863;28;20453;-70
2022/12/23 00:46:26;;;;;;;0.55;0.30;;;14.20;99.90;;;;;;5056437;28;20021;-70
2022/12/23 00:51:36;;;;;;;0.40;0.28;;;14.20;99.90;;;;;;5056850;28;20155;-71
2022/12/23 00:54:02;;;;;;;0.35;0.30;;;14.20;99.90;;;;;;5060077;28;20065;-70
2022/12/23 00:56:27;;;;;;;0.68;0.30;;;14.30;99.90;;;;;;5059878;28;20100;-70
2022/12/23 00:58:53;;;;;;;1.20;0.30;;;14.30;99.90;;;;;;5059545;28;20099;-70
2022/12/23 01:06:47;;;;;;;1.00;0.30;;;14.30;99.90;;;;;;5059417;28;20082;-70
2022/12/23 01:09:13;;;;;;;0.75;0.40;;;14.30;99.90;;;;;;5059735;28;20037;-70
2022/12/23 01:11:38;;;;;;;0.50;0.20;;;14.30;99.90;;;;;;5059574;28;20059;-70
2022/12/23 01:14:05;;;;;;;0.50;0.30;;;14.30;99.90;;;;;;5059612;28;20057;-71
2022/12/23 01:16:30;;;;;;;0.80;0.40;;;14.30;99.90;;;;;;5041688;28;20116;-70
2022/12/23 01:18:57;;;;;;;0.75;0.38;;;14.30;99.90;;;;;;5059206;28;20052;-70
2022/12/23 01:21:23;;;;;;;2.17;0.75;;;14.30;99.90;;;;;;5059518;28;20024;-70
2022/12/23 01:23:49;;;;;;;1.52;0.40;;;14.30;99.90;;;;;;5059475;28;20029;-70
2022/12/23 01:26:14;;;;;;;0.40;0.20;;;14.30;99.90;;;;;;5059640;28;20029;-71
2022/12/23 01:28:40;;;;;;;0.82;0.30;;;14.30;99.90;;;;;;5059547;28;20063;-70
2022/12/23 01:31:09;;;;;;;0.95;0.40;;;14.30;99.90;;;;;;5041626;28;20106;-70
2022/12/23 01:33:34;;;;;;;0.40;0.30;;;14.30;99.90;;;;;;5059164;28;20033;-70
2022/12/23 01:36:02;;;;;;;1.08;0.30;;;14.40;99.90;;;;;;5059097;28;20019;-70
2022/12/23 01:38:28;;;;;;;0.90;0.40;;;14.40;99.90;;;;;;5059184;28;20891;-70
2022/12/23 01:40:54;;;;;;;1.08;0.40;;;14.40;99.90;;;;;;5059270;28;20017;-71
2022/12/23 01:43:20;;;;;;;0.95;0.52;;;14.40;99.90;;;;;;5059112;28;20033;-71
2022/12/23 01:45:46;;;;;;;1.35;0.40;;;14.40;99.90;;;;;;5041286;28;20025;-71
2022/12/23 01:48:23;;;;;;;2.50;0.40;;;14.40;99.90;;;;;;5058939;28;20033;-71
2022/12/23 01:50:58;;;;;;;1.27;0.40;;;14.50;99.90;;;;;;5058859;28;20106;-71
2022/12/23 01:53:32;;;;;;;1.27;0.40;;;14.40;99.90;;;;;;5058604;28;20025;-71
2022/12/23 01:56:14;;;;;;;1.42;0.32;;;14.50;99.90;;;;;;5059066;28;20084;-70
2022/12/23 01:58:43;;;;;;;2.10;0.40;;;14.50;99.90;;;;;;5058990;28;20021;-71
2022/12/23 02:03:58;;;;;;;1.10;0.32;;;14.50;99.90;;;;;;5058477;28;20035;-71
2022/12/23 02:09:16;;;;;;;2.05;0.50;;;14.50;99.90;;;;;;5059009;28;20035;-70
2022/12/23 02:11:56;;;;;;;0.68;0.38;;;14.50;99.90;;;;;;5058372;28;20057;-71
2022/12/23 02:17:40;;;;;;;3.38;0.50;;;14.50;99.90;;;;;;5058673;28;20079;-70
2022/12/23 02:20:53;;;;;;;1.80;0.40;;;14.50;99.90;;;;;;5040550;28;20021;-70
2022/12/23 02:23:43;;;;;;;1.17;0.40;;;14.50;99.90;;;;;;4977837;28;20159;-70
2022/12/23 02:26:19;;;;;;;2.40;0.40;;;14.50;99.90;;;;;;5040462;28;20029;-70
2022/12/23 02:29:03;;;;;;;1.25;0.50;;;14.50;99.90;;;;;;5058072;28;20029;-70
2022/12/23 02:31:45;;;;;;;1.88;0.50;;;14.50;99.90;;;;;;5058211;28;20025;-70
2022/12/23 02:34:34;;;;;;;2.60;0.55;;;14.50;99.90;;;;;;5058320;28;20508;-70
2022/12/23 02:37:47;;;;;;;0.82;0.43;;;14.50;99.90;;;;;;5058089;28;20536;-70
2022/12/23 02:40:18;;;;;;;2.03;0.55;;;14.50;99.90;;;;;;5040514;28;20503;-70
2022/12/23 02:42:48;;;;;;;1.35;0.47;;;14.50;99.90;;;;;;5058248;28;20032;-70
2022/12/23 02:45:33;;;;;;;1.42;0.60;;;14.50;99.90;;;;;;5057961;28;20025;-70
2022/12/23 02:48:03;;;;;;;2.20;1.02;;;14.50;99.90;;;;;;5057879;28;20096;-70
2022/12/23 02:50:35;;;;;;;1.85;0.50;;;14.50;99.90;;;;;;5057820;28;20055;-70
2022/12/23 02:53:08;;;;;;;1.00;0.50;;;14.50;99.90;;;;;;5057756;28;20039;-71
2022/12/23 02:55:36;;;;;;;1.42;0.43;;;14.50;99.90;;;;;;5058019;28;20029;-70
2022/12/23 02:58:07;;;;;;;2.83;0.47;;;14.50;99.90;;;;;;5040043;28;20112;-70
2022/12/23 03:00:33;;;;;;;1.77;0.52;;;14.50;99.90;;;;;;5058123;28;20020;-71
2022/12/23 03:02:59;;;;;;;2.30;0.60;;;14.50;99.90;;;;;;5044357;28;20444;-70
2022/12/23 03:05:41;;;;;;;2.60;0.60;;;14.50;99.90;;;;;;5057744;28;20021;-71
2022/12/23 03:08:17;;;;;;;1.98;0.52;;;14.50;99.90;;;;;;5057693;28;20112;-70
2022/12/23 03:11:18;;;;;;;1.50;0.40;;;14.50;99.90;;;;;;5039516;28;20053;-70
2022/12/23 03:14:13;;;;;;;1.23;0.60;;;14.50;99.90;;;;;;5013205;28;20040;-71
2022/12/23 03:17:16;;;;;;;1.25;0.47;;;14.40;99.90;;;;;;5026538;28;20040;-70
2022/12/23 03:19:54;;;;;;;2.53;0.77;;;14.50;99.90;;;;;;5033329;28;20041;-70
2022/12/23 03:23:02;;;;;;;2.03;0.60;;;14.50;99.90;;;;;;5057427;28;20079;-71
2022/12/23 03:25:53;;;;;;;1.73;0.60;;;14.50;99.90;;;;;;5046545;28;20033;-70
2022/12/23 03:28:28;;;;;;;2.85;0.70;;;14.40;99.90;;;;;;5057145;28;20064;-70
2022/12/23 03:30:58;;;;;;;3.65;0.80;;;14.40;99.90;;;;;;5039501;28;20033;-71
2022/12/23 03:33:38;;;;;;;2.58;0.70;;;14.40;99.90;;;;;;5039203;28;20112;-70
2022/12/23 03:36:20;;;;;;;2.47;0.80;;;14.40;99.90;;;;;;5056993;28;20013;-70
2022/12/23 03:38:47;;;;;;;2.17;0.55;;;14.40;99.90;;;;;;5045251;28;20076;-71
2022/12/23 03:41:20;;;;;;;1.88;0.73;;;14.40;99.90;;;;;;5057129;28;20017;-71
2022/12/23 03:43:56;;;;;;;1.48;0.80;;;14.40;99.90;;;;;;5057301;28;20060;-70
2022/12/23 03:46:30;;;;;;;1.90;0.60;;;14.40;99.90;;;;;;5057192;28;20374;-70
2022/12/23 03:49:02;;;;;;;3.15;1.00;;;14.40;99.90;;;;;;5039266;28;20052;-70
2022/12/23 03:51:35;;;;;;;2.65;0.75;;;14.40;99.90;;;;;;5056908;28;20053;-71
2022/12/23 03:54:08;;;;;;;1.92;0.50;;;14.40;99.90;;;;;;5057112;28;20473;-71
2022/12/23 03:56:39;;;;;;;2.42;0.85;;;14.40;99.90;;;;;;5057362;28;20478;-71
2022/12/23 03:59:14;;;;;;;1.63;0.63;;;14.40;99.90;;;;;;5057187;28;20029;-70
2022/12/23 04:01:49;;;;;;;2.55;0.75;;;14.40;99.90;;;;;;5057018;28;20017;-70
2022/12/23 04:04:24;;;;;;;2.58;0.80;;;14.30;99.90;;;;;;5056958;28;20029;-70
2022/12/23 04:07:01;;;;;;;1.80;0.70;;;14.40;99.90;;;;;;5056935;28;20025;-70
2022/12/23 04:09:28;;;;;;;1.30;0.47;;;14.40;99.90;;;;;;5056935;28;20477;-70
2022/12/23 04:11:54;;;;;;;0.95;0.55;;;14.30;99.90;;;;;;5056506;28;20056;-70
2022/12/23 04:14:21;;;;;;;1.67;0.68;;;14.30;99.90;;;;;;5056845;28;20064;-70
2022/12/23 04:16:48;;;;;;;2.03;0.50;;;14.30;99.90;;;;;;5056792;28;20029;-70
2022/12/23 04:19:14;;;;;;;1.92;0.60;;;14.30;99.90;;;;;;5038994;28;20032;-70
2022/12/23 04:21:40;;;;;;;0.82;0.35;;;14.30;99.90;;;;;;5056784;28;20021;-70
2022/12/23 04:24:06;;;;;;;2.35;0.50;;;14.30;99.90;;;;;;5056861;28;20489;-70
2022/12/23 04:26:31;;;;;;;1.70;0.52;;;14.30;99.90;;;;;;5057310;28;20512;-70
2022/12/23 04:28:57;;;;;;;1.40;0.40;;;14.30;99.90;;;;;;5060564;28;20036;-71
2022/12/23 04:31:23;;;;;;;1.20;0.52;;;14.30;99.90;;;;;;5060751;28;20044;-70
2022/12/23 04:33:48;;;;;;;4.68;0.68;;;14.30;99.90;;;;;;5060847;28;20060;-71
2022/12/23 04:36:14;;;;;;;2.60;0.73;;;14.30;99.90;;;;;;5060387;28;20465;-70
2022/12/23 04:38:39;;;;;;;2.45;0.60;;;14.30;99.90;;;;;;5060357;28;20587;-71
2022/12/23 04:41:05;;;;;;;1.17;0.50;;;14.30;99.90;;;;;;5060431;28;20044;-70
2022/12/23 04:43:31;;;;;;;1.65;0.50;;;14.30;99.90;;;;;;5060374;28;20033;-70
2022/12/23 04:45:56;;;;;;;2.03;0.52;;;14.30;99.90;;;;;;5060220;28;20028;-70
2022/12/23 04:48:22;;;;;;;0.85;0.35;;;14.30;99.90;;;;;;5060011;28;20082;-70
2022/12/23 04:50:47;;;;;;;1.35;0.60;;;14.30;99.90;;;;;;5060252;28;20370;-70
2022/12/23 04:53:13;;;;;;;0.35;0.30;;;14.30;99.90;;;;;;5060032;28;20555;-70
2022/12/23 04:55:39;;;;;;;0.77;0.40;;;14.30;99.90;;;;;;5060298;28;20048;-71
2022/12/23 04:58:04;;;;;;;1.90;0.52;;;14.30;99.90;;;;;;5060051;28;20025;-70
2022/12/23 05:00:30;;;;;;;1.58;0.47;;;14.40;99.90;;;;;;5042221;28;20021;-71
2022/12/23 05:02:56;;;;;;;1.17;0.50;;;14.30;99.90;;;;;;5059764;28;20033;-70
2022/12/23 05:05:21;;;;;;;1.30;0.55;;;14.40;99.90;;;;;;5059883;28;20022;-70
2022/12/23 05:07:49;;;;;;;4.13;0.40;;;14.30;99.90;;;;;;5059820;28;20033;-70
2022/12/23 05:10:15;;;;;;;0.43;0.32;;;14.40;99.90;;;;;;5059806;28;20055;-70
2022/12/23 05:12:40;;;;;;;0.90;0.43;;;14.40;99.90;;;;;;5059822;28;20088;-70
2022/12/23 05:15:07;;;;;;;1.10;0.38;;;14.40;99.90;;;;;;5059983;28;20029;-70
2022/12/23 05:17:33;;;;;;;1.27;0.45;;;14.40;99.90;;;;;;5059516;28;20067;-70
2022/12/23 05:19:58;;;;;;;1.20;0.40;;;14.40;99.90;;;;;;5059559;28;20025;-70
2022/12/23 05:22:24;;;;;;;0.70;0.30;;;14.40;99.90;;;;;;5059675;28;20080;-71
2022/12/23 05:24:49;;;;;;;1.00;0.30;;;14.40;99.90;;;;;;5059858;28;20377;-70
2022/12/23 05:27:15;;;;;;;1.00;0.30;;;14.40;99.90;;;;;;5059467;28;20025;-70
2022/12/23 05:29:41;;;;;;;1.00;0.38;;;14.40;99.90;;;;;;5059619;28;20358;-71
2022/12/23 05:32:06;;;;;;;0.80;0.40;;;14.40;99.90;;;;;;5059185;28;20025;-71
2022/12/23 05:34:32;;;;;;;1.50;0.40;;;14.40;99.90;;;;;;5059354;28;20112;-70
2022/12/23 05:36:57;;;;;;;1.55;0.50;;;14.40;99.90;;;;;;5049358;28;20036;-71
2022/12/23 05:39:23;;;;;;;1.13;0.43;;;14.40;99.90;;;;;;5058144;28;20025;-71
2022/12/23 05:41:49;;;;;;;1.35;0.50;;;14.40;99.90;;;;;;5059262;28;20029;-70
2022/12/23 05:44:14;;;;;;;0.93;0.30;;;14.40;99.90;;;;;;5041376;28;20060;-70
2022/12/23 05:46:40;;;;;;;1.80;0.63;;;14.40;99.90;;;;;;5041106;28;20033;-71
2022/12/23 05:49:06;;;;;;;0.90;0.43;;;14.40;99.90;;;;;;5059267;28;20021;-70
2022/12/23 05:51:31;;;;;;;1.38;0.50;;;14.40;99.90;;;;;;5058757;28;20020;-70
2022/12/23 05:53:57;;;;;;;1.95;0.60;;;14.40;99.90;;;;;;5041192;28;20031;-71
2022/12/23 05:56:23;;;;;;;0.63;0.40;;;14.40;99.90;;;;;;5058894;28;20031;-70
2022/12/23 05:58:48;;;;;;;1.63;0.57;;;14.40;99.90;;;;;;5059105;28;20025;-70
2022/12/23 06:01:14;;;;;;;2.10;0.52;;;14.40;99.90;;;;;;5058745;28;20436;-70
2022/12/23 06:03:39;;;;;;;3.30;1.02;;;14.40;99.90;;;;;;5058847;28;20557;-70
2022/12/23 06:06:05;;;;;;;1.40;0.40;;;14.40;99.90;;;;;;5040404;28;20405;-70
2022/12/23 06:08:31;;;;;;;2.45;0.40;;;14.40;99.90;;;;;;5058843;28;20033;-70
2022/12/23 06:10:58;;;;;;;1.95;0.75;;;14.40;99.90;;;;;;5058526;28;20437;-70
2022/12/23 06:13:24;;;;;;;1.25;0.50;;;14.40;99.90;;;;;;5058604;28;20502;-70
2022/12/23 06:15:50;;;;;;;1.52;0.40;;;14.40;99.90;;;;;;5058445;28;20048;-70
2022/12/23 06:18:15;;;;;;;0.75;0.40;;;14.40;99.90;;;;;;5058517;28;20025;-70
2022/12/23 06:20:45;;;;;;;0.95;0.47;;;14.40;99.90;;;;;;5058201;28;20477;-70
2022/12/23 06:23:10;;;;;;;1.48;0.50;;;14.40;99.90;;;;;;5058504;28;20025;-70
2022/12/23 06:25:36;;;;;;;0.98;0.60;;;14.40;99.90;;;;;;5058343;28;20043;-70
2022/12/23 06:28:02;;;;;;;1.67;0.55;;;14.40;99.90;;;;;;5058413;28;20025;-70
2022/12/23 06:30:27;;;;;;;1.85;0.50;;;14.40;99.90;;;;;;5058255;28;20033;-70
2022/12/23 06:32:53;;;;;;;0.60;0.38;;;14.40;99.90;;;;;;5057919;28;20064;-70
2022/12/23 06:35:18;;;;;;;1.17;0.55;;;14.40;99.90;;;;;;5057893;28;20503;-70
2022/12/23 06:37:44;;;;;;;1.38;0.50;;;14.40;99.90;;;;;;5058267;28;20389;-71
2022/12/23 06:40:10;;;;;;;1.65;0.40;;;14.40;99.90;;;;;;5058090;28;20025;-70
2022/12/23 06:42:36;;;;;;;0.63;0.30;;;14.40;99.90;;;;;;5058133;28;20044;-71
2022/12/23 06:45:02;;;;;;;0.98;0.30;;;14.40;99.90;;;;;;5040017;28;20029;-70
2022/12/23 06:47:27;;;;;;;1.48;0.40;;;14.40;99.90;;;;;;5057784;28;20108;-70
2022/12/23 06:49:53;;;;;;;1.35;0.30;;;14.40;99.90;;;;;;5039659;28;20025;-71
2022/12/23 06:52:21;;;;;;;1.08;0.28;;;14.40;99.90;;;;;;5039985;28;20048;-70
2022/12/23 06:54:47;;;;;;;0.60;0.20;;;14.40;99.90;;;;;;5057639;28;20044;-70
2022/12/23 06:57:13;;;;;;;0.65;0.28;;;14.40;99.90;;;;;;5057938;28;20432;-70
2022/12/23 06:59:38;;;;;;;0.43;0.30;;;14.40;99.90;;;;;;5060066;28;20028;-70
2022/12/23 07:02:04;;;;;;;1.58;0.22;;;14.40;99.90;;;;;;5065879;28;20009;-70
2022/12/23 07:04:30;;;;;;;1.45;0.40;;;14.40;99.90;;;;;;5065092;28;20037;-70
2022/12/23 07:06:56;;;;;;;0.95;0.30;;;14.40;99.90;;;;;;5063715;28;20143;-71
2022/12/23 07:09:22;;;;;;;1.00;0.35;;;14.40;99.90;;;;;;5057520;28;20029;-71
2022/12/23 07:11:47;;;;;;;0.22;0.20;;;14.40;99.90;;;;;;5057160;28;20595;-70
2022/12/23 07:14:13;;;;;;;1.98;0.20;;;14.40;99.90;;;;;;5057376;28;20489;-71
2022/12/23 07:16:39;;;;;;;0.47;0.30;;;14.40;99.90;;;;;;5054357;28;20724;-71
2022/12/23 07:19:04;;;;;;;1.05;0.30;;;14.40;99.90;;;;;;5057916;28;20028;-70
2022/12/23 07:21:30;;;;;;;0.95;0.30;;;14.40;99.90;;;;;;5061457;28;20016;-71
2022/12/23 07:23:56;;;;;;;0.40;0.30;;;14.40;99.90;;;;;;5056863;28;20029;-70
2022/12/23 07:26:21;;;;;;;0.45;0.20;;;14.40;99.90;;;;;;5039207;28;20021;-70
2022/12/23 07:28:47;;;;;;;0.38;0.20;;;14.40;99.90;;;;;;5056873;28;20036;-70
2022/12/23 07:31:14;;;;;;;0.28;0.20;;;14.40;99.90;;;;;;5039237;28;20055;-70
2022/12/23 07:33:39;;;;;;;0.52;0.20;;;14.40;99.90;;;;;;5061314;28;20028;-70
2022/12/23 07:36:05;;;;;;;1.77;0.40;;;14.40;99.90;;;;;;5043686;28;20025;-70
2022/12/23 07:38:31;;;;;;;1.08;0.30;;;14.40;99.90;;;;;;5039464;28;20107;-70
2022/12/23 07:40:57;;;;;;;0.55;0.28;;;14.40;99.90;;;;;;5048757;28;20028;-70
2022/12/23 07:43:22;;;;;;;0.60;0.25;;;14.50;99.90;;;;;;5065462;28;20032;-70
2022/12/23 07:45:48;;;;;;;0.98;0.35;;;14.50;99.90;;;;;;5061267;28;20029;-70
2022/12/23 07:48:14;;;;;;;0.60;0.25;;;14.50;99.90;;;;;;5056269;28;20029;-70
2022/12/23 07:50:39;;;;;;;2.00;0.50;;;14.50;99.90;;;;;;5054999;28;20082;-70
2022/12/23 07:53:05;;;;;;;1.05;0.38;;;14.50;99.90;;;;;;5056667;28;20032;-70
2022/12/23 07:55:30;;;;;;;1.70;0.40;;;14.50;99.90;;;;;;5037630;28;20028;-70
2022/12/23 07:57:56;;;;;;;1.58;0.60;;;14.50;99.90;;;;;;5055318;28;20033;-70
2022/12/23 08:00:22;;;;;;;1.50;0.50;;;14.50;99.90;;;;;;5038162;28;20020;-70
2022/12/23 08:02:47;;;;;;;2.80;0.50;;;14.50;99.90;;;;;;5059022;28;20033;-70
2022/12/23 08:05:14;;;;;;;1.55;0.70;;;14.50;99.90;;;;;;5060901;28;20033;-70
2022/12/23 08:07:39;;;;;;;1.45;0.68;;;14.50;99.90;;;;;;5060904;28;20086;-70
2022/12/23 08:10:06;;;;;;;1.80;0.60;;;14.50;99.90;;;;;;5060803;28;20053;-70
2022/12/23 08:12:32;;;;;;;1.92;0.90;;;14.50;99.90;;;;;;5060315;28;20047;-70
2022/12/23 08:14:58;;;;;;;3.15;0.90;;;14.50;99.90;;;;;;5060721;28;20534;-70
2022/12/23 08:17:28;;;;;;;3.35;0.80;;;14.50;99.90;;;;;;5060225;28;20096;-70
2022/12/23 08:19:54;;;;;;;2.05;0.77;;;14.50;99.90;;;;;;5060475;28;20090;-69
2022/12/23 08:22:20;;;;;;;2.30;1.00;;;14.50;99.90;;;;;;5061361;28;20017;-69
2022/12/23 08:24:46;;;;;;;2.55;0.85;;;14.50;99.90;;;;;;5060285;28;20032;-69
2022/12/23 08:27:11;;;;;;;4.43;1.33;;;14.50;99.90;;;;;;5059919;28;20017;-69
2022/12/23 08:29:39;;;;;;;4.20;0.90;;;14.50;99.90;;;;;;5060580;28;20448;-69
2022/12/23 08:32:05;;;;;;;4.57;0.80;;;14.50;99.90;;;;;;5059992;28;20052;-69
2022/12/23 08:34:31;;;;;;;3.97;1.00;;;14.50;99.90;;;;;;5042012;28;20451;-69
2022/12/23 08:36:57;;;;;;;4.78;0.77;;;14.50;99.90;;;;;;5063337;28;20060;-70
2022/12/23 08:39:22;;;;;;;3.40;1.02;;;14.50;99.90;;;;;;5060521;28;20028;-69
2022/12/23 08:41:48;;;;;;;5.40;1.48;;;14.50;99.90;;;;;;5060111;28;20551;-69
2022/12/23 08:44:14;;;;;;;4.95;1.40;;;14.50;99.90;;;;;;5060273;28;20044;-69
2022/12/23 08:46:40;;;;;;;6.75;1.70;;;14.50;99.90;;;;;;5060032;28;20028;-70
2022/12/23 08:49:08;;;;;;;4.28;1.25;;;14.50;99.90;;;;;;5060320;28;20025;-69
2022/12/23 08:51:35;;;;;;;5.97;1.52;;;14.50;99.90;;;;;;5059839;28;20396;-70
2022/12/23 08:54:01;;;;;;;5.47;1.60;;;14.50;99.90;;;;;;5060290;28;20027;-69
2022/12/23 08:56:29;;;;;;;7.13;1.52;;;14.40;99.90;;;;;;5060047;28;20100;-70
2022/12/23 08:58:55;;;;;;;5.93;1.67;;;14.50;99.90;;;;;;5060229;28;20059;-69
2022/12/23 09:01:25;;;;;;;9.82;2.03;;;14.50;99.90;;;;;;5059958;28;20476;-69
2022/12/23 09:03:51;;;;;;;8.35;1.55;;;14.50;99.90;;;;;;5060173;28;20074;-69
2022/12/23 09:06:21;;;;;;;10.68;1.80;;;14.50;99.90;;;;;;5059810;28;20496;-70
2022/12/23 09:08:47;;;;;;;7.03;1.60;;;14.50;99.90;;;;;;5065992;28;20447;-70
2022/12/23 09:11:15;;;;;;;6.43;1.83;;;14.50;99.90;;;;;;5059790;28;20067;-70
2022/12/23 09:13:41;;;;;;;5.68;1.30;;;14.50;99.90;;;;;;5059585;28;20032;-70
2022/12/23 09:16:07;;;;;;;5.07;1.60;;;14.50;99.90;;;;;;5055533;28;20017;-70
2022/12/23 09:18:33;;;;;;;6.90;1.73;;;14.50;99.90;;;;;;5072620;28;20031;-70
2022/12/23 09:21:01;;;;;;;6.30;1.60;;;14.50;99.90;;;;;;5063290;28;20572;-70
2022/12/23 09:23:27;;;;;;;6.07;1.65;;;14.50;99.90;;;;;;5052011;28;20119;-70
2022/12/23 09:25:53;;;;;;;9.55;1.73;;;14.50;99.90;;;;;;5059230;28;20061;-70
2022/12/23 09:28:19;;;;;;;5.90;1.45;;;14.50;99.90;;;;;;5059448;28;20100;-70
2022/12/23 09:30:45;;;;;;;6.85;1.55;;;14.50;99.90;;;;;;5058687;28;20505;-69
2022/12/23 09:33:10;;;;;;;3.97;1.27;;;14.50;99.90;;;;;;5058687;28;20068;-69
2022/12/23 09:35:36;;;;;;;6.78;1.63;;;14.50;99.90;;;;;;5040889;28;20104;-69
2022/12/23 09:38:02;;;;;;;7.80;1.60;;;14.50;99.90;;;;;;5062039;28;20115;-70
2022/12/23 09:40:31;;;;;;;7.45;1.60;;;14.50;99.90;;;;;;5058912;28;20013;-69
2022/12/23 09:43:06;;;;;;;7.07;1.63;;;14.50;99.90;;;;;;5043074;28;20033;-69
2022/12/23 09:45:31;;;;;;;8.55;1.75;;;14.40;99.90;;;;;;5040876;28;20024;-69
2022/12/23 09:47:57;;;;;;;6.57;1.92;;;14.40;99.90;;;;;;5040671;28;20115;-70
2022/12/23 09:50:28;;;;;;;7.20;1.95;;;14.30;99.90;;;;;;5058420;28;20021;-69
2022/12/23 09:53:02;;;;;;;9.45;1.70;;;14.30;99.90;;;;;;5040802;28;20028;-69
2022/12/23 09:55:50;;;;;;;5.88;1.60;;;14.30;99.90;;;;;;5058749;28;20017;-69
2022/12/23 09:58:51;;;;;;;6.47;1.58;;;14.20;99.90;;;;;;5058915;28;20108;-69
2022/12/23 10:01:39;;;;;;;4.80;1.88;;;14.20;99.90;;;;;;5050056;28;20072;-69
2022/12/23 10:04:27;;;;;;;8.48;1.83;;;14.10;99.90;;;;;;5071391;28;20043;-69
2022/12/23 10:07:02;;;;;;;5.13;1.95;;;14.10;99.90;;;;;;5045164;28;20086;-70
2022/12/23 10:09:31;;;;;;;5.00;1.77;;;14.10;99.90;;;;;;5053861;28;20029;-69
2022/12/23 10:11:58;;;;;;;6.93;1.48;;;14.00;99.90;;;;;;5040373;28;20044;-69
2022/12/23 10:14:30;;;;;;;4.75;1.40;;;14.10;99.90;;;;;;5058919;28;20025;-70
2022/12/23 10:17:03;;;;;;;4.40;1.33;;;14.00;99.90;;;;;;5058386;28;20025;-69
2022/12/23 10:19:40;;;;;;;7.00;1.75;;;14.00;99.90;;;;;;5060495;28;20017;-69
2022/12/23 10:22:23;;;;;;;5.88;1.52;;;14.00;99.90;;;;;;5041363;28;20044;-69
2022/12/23 10:24:49;;;;;;;11.37;1.83;;;14.00;99.90;;;;;;5039929;28;20025;-69
2022/12/23 10:27:38;;;;;;;6.40;1.40;;;14.00;99.90;;;;;;5058871;28;20345;-69
2022/12/23 10:30:14;;;;;;;8.02;1.40;;;14.00;99.90;;;;;;5048299;28;20037;-69
2022/12/23 10:33:06;;;;;;;5.95;1.40;;;14.00;99.90;;;;;;5057615;28;20083;-69
2022/12/23 10:35:35;;;;;;;5.72;1.50;;;14.10;99.90;;;;;;5058701;28;20021;-69
2022/12/23 10:38:21;;;;;;;6.63;1.35;;;14.10;99.90;;;;;;5059364;28;20021;-69
2022/12/23 10:40:55;;;;;;;4.90;1.30;;;14.20;99.90;;;;;;5038236;28;20029;-70
2022/12/23 10:43:29;;;;;;;5.97;1.30;;;14.20;99.90;;;;;;5056925;28;20535;-70
2022/12/23 10:46:32;;;;;;;5.40;1.33;;;14.30;99.90;;;;;;5057340;28;20029;-69
2022/12/23 10:48:58;;;;;;;6.47;1.20;;;14.30;99.90;;;;;;5056843;28;20428;-70
2022/12/23 10:51:45;;;;;;;5.50;1.52;;;14.30;99.90;;;;;;5039144;28;20040;-70
2022/12/23 10:54:21;;;;;;;8.02;1.42;;;14.30;99.90;;;;;;5055139;28;20172;-70
2022/12/23 10:56:47;;;;;;;4.80;1.40;;;14.30;99.90;;;;;;5057343;28;20021;-69
2022/12/23 10:59:15;;;;;;;4.70;1.25;;;14.30;99.90;;;;;;5056911;28;20028;-69
2022/12/23 11:01:46;;;;;;;6.03;1.65;;;14.40;99.90;;;;;;5055824;28;20021;-69
2022/12/23 11:04:21;;;;;;;4.10;1.23;;;14.40;99.90;;;;;;5055994;28;20025;-69
2022/12/23 11:06:50;;;;;;;4.78;1.33;;;14.40;99.90;;;;;;5057252;28;20521;-69
2022/12/23 11:09:21;;;;;;;4.95;1.30;;;14.40;99.90;;;;;;5057544;28;20021;-69
2022/12/23 11:12:02;;;;;;;6.03;1.58;;;14.50;99.90;;;;;;5038130;28;20055;-70
2022/12/23 11:14:41;;;;;;;5.55;1.33;;;14.50;99.90;;;;;;5057229;28;20025;-69
2022/12/23 11:17:28;;;;;;;6.85;1.60;;;14.60;99.90;;;;;;5057242;28;20450;-70
2022/12/23 11:20:09;;;;;;;11.65;2.03;;;14.60;99.90;;;;;;5039519;28;20032;-70
2022/12/23 11:22:44;;;;;;;10.95;1.83;;;14.60;99.90;;;;;;5056807;28;20035;-70
2022/12/23 11:25:31;;;;;;;7.93;1.60;;;14.70;99.90;;;;;;5064640;28;20047;-72
2022/12/23 11:28:09;;;;;;;7.85;2.00;;;14.70;99.90;;;;;;5064128;28;20025;-72
2022/12/23 11:30:53;;;;;;;7.03;1.73;;;14.80;99.90;;;;;;5066965;28;20010;-72
2022/12/23 11:33:29;;;;;;;9.15;2.50;;;14.80;99.90;;;;;;5040419;28;20035;-71
2022/12/23 11:36:18;;;;;;;7.32;2.10;;;14.80;99.90;;;;;;5057035;28;20496;-68
2022/12/23 11:39:09;;;;;;;11.30;2.25;;;14.80;99.90;;;;;;5044129;28;20031;-69
2022/12/23 11:41:44;;;;;;;10.55;2.17;;;14.90;99.90;;;;;;5057314;28;20021;-68
2022/12/23 11:44:29;;;;;;;12.02;2.25;;;14.90;99.90;;;;;;5057188;28;20032;-68
2022/12/23 11:46:55;;;;;;;10.55;2.50;;;14.90;99.90;;;;;;5057223;28;20060;-68
2022/12/23 11:49:30;;;;;;;10.07;2.33;;;14.90;99.90;;;;;;5039155;28;20036;-68
2022/12/23 11:52:12;;;;;;;12.57;2.90;;;14.90;99.90;;;;;;5039391;28;20025;-68
2022/12/23 11:54:38;;;;;;;15.07;3.42;;;14.90;99.90;;;;;;5039074;28;20118;-68
2022/12/23 11:57:13;;;;;;;14.10;3.03;;;14.90;99.90;;;;;;5056905;28;20049;-68
2022/12/23 11:59:54;;;;;;;12.52;2.55;;;14.90;99.90;;;;;;5039149;28;20028;-68
2022/12/23 12:02:35;;;;;;;14.45;3.08;;;14.90;99.90;;;;;;5056704;28;20542;-70
2022/12/23 12:05:15;;;;;;;12.88;2.72;;;14.90;99.90;;;;;;5040444;28;20029;-70
2022/12/23 12:07:43;;;;;;;13.65;2.67;;;14.90;99.90;;;;;;5064398;28;20392;-72
2022/12/23 12:10:20;;;;;;;10.73;2.85;;;14.90;99.90;;;;;;5063616;28;20040;-72
2022/12/23 12:12:50;;;;;;;12.70;3.03;;;15.00;99.90;;;;;;5064375;28;20021;-73
2022/12/23 12:15:43;;;;;;;18.58;3.47;;;15.00;99.90;;;;;;5065461;28;20021;-71
2022/12/23 12:18:14;;;;;;;14.93;2.95;;;15.00;99.90;;;;;;5042542;28;20107;-72
2022/12/23 12:20:55;;;;;;;11.65;2.80;;;15.00;99.90;;;;;;5043157;28;20107;-73
2022/12/23 12:23:45;;;;;;;12.63;3.05;;;15.00;99.90;;;;;;5065499;28;20078;-73
2022/12/23 12:26:26;;;;;;;16.58;3.80;;;15.10;99.90;;;;;;5063256;28;20029;-73
2022/12/23 12:29:19;;;;;;;16.45;3.33;;;15.10;99.90;;;;;;5038939;28;20028;-72
2022/12/23 12:31:48;;;;;;;16.67;3.47;;;15.10;99.90;;;;;;5056596;28;20029;-73
2022/12/23 12:34:35;;;;;;;14.98;3.15;;;15.10;99.90;;;;;;5038626;28;20056;-70
2022/12/23 12:37:23;;;;;;;14.88;2.42;;;15.10;99.90;;;;;;5043731;28;20496;-70
2022/12/23 12:39:53;;;;;;;17.55;2.90;;;15.00;99.90;;;;;;5058707;28;20029;-70
2022/12/23 12:42:33;;;;;;;21.10;3.78;;;15.00;99.90;;;;;;5064400;28;20530;-70
2022/12/23 12:45:20;;;;;;;17.00;3.47;;;15.00;99.90;;;;;;5064206;28;20021;-70
2022/12/23 12:48:21;;;;;;;13.82;3.10;;;15.00;99.90;;;;;;5049599;28;20111;-70
2022/12/23 12:51:24;;;;;;;15.35;3.33;;;15.00;99.90;;;;;;5065097;28;20021;-70
2022/12/23 12:54:20;;;;;;;19.08;3.67;;;15.00;99.90;;;;;;5051321;28;20036;-68
2022/12/23 12:56:47;;;;;;;14.18;3.63;;;15.00;99.90;;;;;;5041954;28;20536;-68
2022/12/23 12:59:20;;;;;;;16.13;3.42;;;14.90;99.90;;;;;;5060083;28;20367;-68
2022/12/23 13:02:07;;;;;;;12.65;3.15;;;14.90;99.90;;;;;;5059916;28;20029;-68
2022/12/23 13:04:51;;;;;;;17.02;3.10;;;14.90;99.90;;;;;;5041821;28;20120;-68
2022/12/23 13:07:42;;;;;;;15.32;3.88;;;14.90;99.90;;;;;;5041956;28;20057;-67
2022/12/23 13:10:20;;;;;;;17.17;3.70;;;14.90;99.90;;;;;;5059959;28;20045;-67
2022/12/23 13:13:13;;;;;;;13.55;3.28;;;14.90;99.90;;;;;;5059188;28;20516;-68
2022/12/23 13:16:32;;;;;;;15.02;3.47;;;14.90;99.90;;;;;;5046027;28;20033;-68
2022/12/23 13:19:11;;;;;;;13.60;3.33;;;14.90;99.90;;;;;;5006018;28;20050;-68
2022/12/23 13:21:49;;;;;;;10.65;2.50;;;14.80;99.90;;;;;;5000357;28;20042;-68
2022/12/23 13:24:48;;;;;;;19.63;3.70;;;14.80;99.90;;;;;;5037189;28;20029;-68
2022/12/23 13:27:22;;;;;;;14.80;3.50;;;14.80;99.90;;;;;;5062714;28;20084;-68
2022/12/23 13:30:22;;;;;;;17.63;3.83;;;14.80;99.90;;;;;;5059667;28;20017;-68
2022/12/23 13:33:09;;;;;;;23.30;3.45;;;14.80;99.90;;;;;;5058760;28;20032;-68
2022/12/23 13:36:03;;;;;;;18.67;3.90;;;14.80;99.90;;;;;;5047079;28;20017;-68